AirNav   Pilot Hours Calculator
 
 1273 users online  

9G1 Pittsburgh Northeast Airport
Pittsburgh, Pennsylvania, USA

GOING TO PITTSBURGH?


FAA INFORMATION EFFECTIVE 30 JANUARY 2020

Location

FAA Identifier: 9G1
Lat/Long: 40-36-12.7666N 079-49-34.0282W
40-36.212777N 079-49.567137W
40.6035463,-79.8261189
(estimated)
Elevation: 1063 ft. / 324 m (estimated)
Variation: 09W (2010)
From city: 12 miles NNE of PITTSBURGH, PA
Time zone: UTC -5 (UTC -4 during Daylight Saving Time)
Zip code: 15084

Airport Operations

Airport use: Open to the public
Control tower: no
ARTCC: CLEVELAND CENTER
FSS: ALTOONA FLIGHT SERVICE STATION
NOTAMs facility: AOO (NOTAM-D service available)
Attendance: MON - FRI 0800-1700
UNATNDD FEDERAL HOL.
Wind indicator: yes
Segmented circle: no

Airport Communications

CTAF/UNICOM: 122.8
WX AWOS-3PT at BTP (12 nm NW): 121.450 (724-586-6434)
WX AWOS-A at 42PN (12 nm SW): PHONE 412-442-2213
WX ASOS at AGC (16 nm S): 120.55 (412-466-8968)
WX AWOS-3PT at PJC (19 nm NW): 118.45 (724-452-5304)
WX ASOS at PIT (20 nm W): PHONE 412-472-0145

Nearby radio navigation aids

VOR radial/distance  VOR name  Freq  Var
AGCr036/21.8ALLEGHENY VOR/DME110.0009W
EWCr135/22.0ELLWOOD CITY VOR/DME115.8008W
CIPr213/36.6CLARION VOR/DME112.9006W
HLGr066/39.7WHEELING VOR/DME112.2007W

 
NDB name  Hdg/Dist  Freq  Var  ID
CASTLE142/36.727209WUCP ..- -.-. .--.

Airport Services

Parking: tiedowns
Airframe service: NONE
Powerplant service: NONE
Bottled oxygen: NONE
Bulk oxygen: NONE

Runway Information

Runway 17/35

Dimensions: 3550 x 100 ft. / 1082 x 30 m
Surface: asphalt, in good condition
Runway edge markings: RWY MARKINGS FADED.
RUNWAY 17  RUNWAY 35
Latitude: 40-36.494232N40-35.931320N
Longitude: 079-49.670788W079-49.463483W
Elevation: 1062.6 ft.1054.9 ft.
Traffic pattern: leftleft
Markings: nonprecision, in poor conditionbasic, in poor condition
Touchdown point: yes, no lightsyes, no lights
Obstructions: 129 ft. trees, 1833 ft. from runway, 260 ft. left of centerline, 12:1 slope to clear33 ft. trees, 469 ft. from runway, 85 ft. right of centerline, 8:1 slope to clear

Airport Ownership and Management from official FAA records

Ownership: Privately-owned
Owner: ALASKAN PROPERTY MANAGEMENT CO LLC
500 ROCKPOINTE BLVD
PITTSBURGH, PA 15084
Phone (724) 265-1144
Manager: ALEXIS NIXON
500 ROCKPOINTE BLVD
PITTSBURGH, PA 15084
Phone (724) 265-1144
AFT HRS CALL (412) 443-6496.

Airport Operational Statistics

Aircraft based on the field: 1
Single engine airplanes: 1
    
Aircraft operations: avg 83/month *
50% local general aviation
40% transient general aviation
10% military
* for 12-month period ending 18 December 2018

Additional Remarks

RWY CONST INPR PAEW ADJ TO RWY 17/35.
PAEW INDEF; OPS OF CONSTR EQUIP 519 FT FROM RWY 35 THLD. PENNDOT CONSTRUCTION TRAINING SITE.
TIE DOWN ROPES NOT SUPPLIED.
ARPT CLSD FOR NIGHT OPS.
FOR CD CTC PITTSBURGH APCH AT 412-472-5591

Instrument Procedures

There are no published instrument procedures at 9G1.

Some nearby airports with instrument procedures:

KBTP - Pittsburgh/Butler Regional Airport (12 nm NW)
6P7 - McVille Airport (13 nm NE)
KAGC - Allegheny County Airport (16 nm S)
KPJC - Zelienople Municipal Airport (19 nm NW)
KPIT - Pittsburgh International Airport (20 nm W)
 
Loc | Ops | Rwys | IFR | FBO | Links
Com | Nav | Svcs | Stats | Notes
Area around 9G1 (Pittsburgh Northeast Airport)
 
Road maps at: MapQuest Bing Google
 
Aerial photo
WARNING: Photo may not be current or correct
Aerial photo of 9G1 (Pittsburgh Northeast Airport)
Photo taken 09-May-2016
looking south.

Do you have a better or more recent aerial photo of Pittsburgh Northeast Airport that you would like to share? If so, please send us your photo.

 
Sectional chart

 
Airport distance calculator
Flying to Pittsburgh Northeast Airport? Find the distance to fly.

From to 9G1

Sunrise and sunset
Times for 26-Feb-2020
 Local
(UTC-5)
 Zulu
(UTC)
Morning civil twilight06:3111:31
Sunrise06:5911:59
Sunset18:0623:06
Evening civil twilight18:3323:33

Current date and time
Zulu (UTC)  26-Feb-2020 23:39:44
Local (UTC-5)  26-Feb-2020 18:39:44
 
METAR
KBTP 
11nm NW 
262319Z AUTO 06004KT 6SM RA BR BKN029 OVC033 06/05 A2961 RMK AO2 P0003
KAGC 
16nm S 
262253Z 00000KT 2 1/2SM RA BR OVC035 06/06 A2959 RMK AO2 SLP028 P0017 T00610061
KPJC 
19nm NW 
262316Z AUTO 00000KT 7SM -RA SCT029 BKN034 OVC042 05/05 A2960 RMK AO2 LTG DSNT S
KPIT 
21nm W 
262251Z 03005KT 9SM -RA FEW009 BKN048 OVC060 06/05 A2959 RMK AO2 SLP031 P0004 T00610050
TAF
KAGC 
16nm S 
261731Z 2618/2718 20006KT P6SM OVC015 FM262100 20005KT 6SM -SHRA OVC010 FM262300 25006KT 2SM SHRA OVC007 FM270400 26009G17KT 3SM -SHSN OVC007 FM270700 27015G25KT 6SM -SHSN OVC012 FM271200 28016G26KT P6SM VCSH OVC020
NOTAMs
Click for the latest NOTAMs
NOTAMs are issued by the DoD/FAA and will open in a separate window not controlled by AirNav.

 

 
 

Would you like to see your business listed on this page?

 If your business provides an interesting product or service to pilots, flight crews, aircraft, or users of the Pittsburgh Northeast Airport, you should consider listing it here.  To start the listing process, click on the button below
 
Add a business
 

Other Pages about Pittsburgh Northeast Airport

www.rock-port.com
 
Update a link
 
Copyright © AirNav, LLC. All rights reserved. Privacy Policy  Contact